createdAt,value
2018-05-07T00:02:10.835Z,5.13
2018-05-07T00:04:38.429Z,4.77
2018-05-07T00:07:06.151Z,4.80
2018-05-07T00:09:34.252Z,4.80
2018-05-07T00:12:01.942Z,4.67
2018-05-07T00:14:29.486Z,4.73
2018-05-07T00:16:57.058Z,4.73
2018-05-07T00:19:25.610Z,4.70
2018-05-07T00:21:53.875Z,4.33
2018-05-07T00:24:21.538Z,4.67
2018-05-07T00:26:49.277Z,4.43
2018-05-07T00:29:16.877Z,4.80
2018-05-07T00:31:45.369Z,4.60
2018-05-07T00:34:12.932Z,5.07
2018-05-07T00:36:41.588Z,4.63
2018-05-07T00:39:09.779Z,4.87
2018-05-07T00:41:37.665Z,5.37
2018-05-07T00:44:05.797Z,4.70
2018-05-07T00:46:33.328Z,4.90
2018-05-07T00:49:01.030Z,4.33
2018-05-07T00:51:29.529Z,4.43
2018-05-07T00:53:57.802Z,4.73
2018-05-07T00:56:25.687Z,5.00
2018-05-07T00:58:54.032Z,4.53
2018-05-07T01:01:21.792Z,4.60
2018-05-07T01:03:49.350Z,4.50
2018-05-07T01:06:16.878Z,4.30
2018-05-07T01:08:44.998Z,4.43
2018-05-07T01:11:13.514Z,4.43
2018-05-07T01:13:41.030Z,4.80
2018-05-07T01:16:09.098Z,4.77
2018-05-07T01:18:37.461Z,4.60
2018-05-07T01:21:04.991Z,4.83
2018-05-07T01:23:32.595Z,4.80
2018-05-07T01:26:00.124Z,4.43
2018-05-07T01:28:28.400Z,5.10
2018-05-07T01:30:56.810Z,5.07
2018-05-07T01:33:24.797Z,5.37
2018-05-07T01:35:52.936Z,4.73
2018-05-07T01:38:20.718Z,5.30
2018-05-07T01:40:48.944Z,5.30
2018-05-07T01:43:17.726Z,4.97
2018-05-07T01:45:46.730Z,5.50
2018-05-07T01:48:14.519Z,4.73
2018-05-07T01:50:42.047Z,5.50
2018-05-07T01:53:09.746Z,5.17
2018-05-07T01:55:38.186Z,5.27
2018-05-07T01:58:05.720Z,5.00
2018-05-07T02:00:33.455Z,4.90
2018-05-07T02:03:01.113Z,5.10
2018-05-07T02:05:29.550Z,5.50
2018-05-07T02:07:57.113Z,4.70
2018-05-07T02:10:25.457Z,5.37
2018-05-07T02:12:53.404Z,5.80
2018-05-07T02:15:20.954Z,5.30
2018-05-07T02:17:48.908Z,5.70
2018-05-07T02:20:17.213Z,4.73
2018-05-07T02:22:45.496Z,5.33
2018-05-07T02:25:13.007Z,5.60
2018-05-07T02:27:40.561Z,5.70
2018-05-07T02:30:08.061Z,5.83
2018-05-07T02:32:35.727Z,5.33
2018-05-07T02:35:03.245Z,5.23
2018-05-07T02:37:31.371Z,5.40
2018-05-07T02:39:59.363Z,5.20
2018-05-07T02:42:26.886Z,5.80
2018-05-07T02:44:54.451Z,5.27
2018-05-07T02:47:22.400Z,5.10
2018-05-07T02:49:50.745Z,5.93
2018-05-07T02:52:18.326Z,5.50
2018-05-07T02:54:46.089Z,6.37
2018-05-07T02:57:13.802Z,5.60
2018-05-07T02:59:41.694Z,5.97
2018-05-07T03:02:09.680Z,5.23
2018-05-07T03:04:37.206Z,5.83
2018-05-07T03:07:04.756Z,5.40
2018-05-07T03:09:32.807Z,4.93
2018-05-07T03:12:00.345Z,6.37
2018-05-07T03:14:30.866Z,5.57
2018-05-07T03:16:58.394Z,6.30
2018-05-07T03:19:27.309Z,6.50
2018-05-07T03:21:54.866Z,5.60
2018-05-07T03:24:23.345Z,6.10
2018-05-07T03:26:51.217Z,6.20
2018-05-07T03:29:18.799Z,6.50
2018-05-07T03:31:46.377Z,6.50
2018-05-07T03:34:13.905Z,6.77
2018-05-07T03:36:41.615Z,5.90
2018-05-07T03:39:09.134Z,6.93
2018-05-07T03:41:36.730Z,6.57
2018-05-07T03:44:04.339Z,6.43
2018-05-07T03:46:31.841Z,7.00
2018-05-07T03:48:59.369Z,7.17
2018-05-07T03:51:27.033Z,6.47
2018-05-07T03:53:55.319Z,7.47
2018-05-07T03:56:24.393Z,6.70
2018-05-07T03:58:53.643Z,6.90
2018-05-07T04:01:21.165Z,7.50
2018-05-07T04:03:49.029Z,7.80
2018-05-07T04:06:16.854Z,6.87
2018-05-07T04:08:45.022Z,7.30
2018-05-07T04:11:13.032Z,6.43
2018-05-07T04:13:40.562Z,7.03
2018-05-07T04:16:08.488Z,7.00
2018-05-07T04:18:47.692Z,6.70
2018-05-07T04:21:15.907Z,6.53
2018-05-07T04:23:55.279Z,6.53
2018-05-07T04:26:23.748Z,6.50
2018-05-07T04:28:51.297Z,6.07
2018-05-07T04:31:18.870Z,7.17
2018-05-07T04:33:46.588Z,6.80
2018-05-07T04:36:14.158Z,6.13
2018-05-07T04:38:42.479Z,6.67
2018-05-07T04:41:10.405Z,6.50
2018-05-07T04:43:37.936Z,6.10
2018-05-07T04:46:05.464Z,6.47
2018-05-07T04:48:33.650Z,6.55
2018-05-07T04:51:01.212Z,6.87
2018-05-07T04:53:28.718Z,7.45
2018-05-07T04:55:56.436Z,7.45
2018-05-07T04:58:24.764Z,7.45
2018-05-07T05:00:52.370Z,7.32
2018-05-07T05:03:20.597Z,6.62
2018-05-07T05:05:49.116Z,7.78
2018-05-07T05:08:16.713Z,7.43
2018-05-07T05:10:44.335Z,7.53
2018-05-07T05:13:12.681Z,7.35
2018-05-07T05:15:40.954Z,7.10
2018-05-07T05:18:08.478Z,7.37
2018-05-07T05:20:36.032Z,6.97
2018-05-07T05:23:05.234Z,7.00
2018-05-07T05:25:32.834Z,7.20
2018-05-07T05:28:01.188Z,7.32
2018-05-07T05:30:28.704Z,8.18
2018-05-07T05:32:57.625Z,7.30
2018-05-07T05:35:25.432Z,7.03
2018-05-07T05:37:52.974Z,6.57
2018-05-07T05:40:21.940Z,6.10
2018-05-07T05:42:49.682Z,6.45
2018-05-07T05:45:17.199Z,6.43
2018-05-07T05:47:45.828Z,6.65
2018-05-07T05:50:13.618Z,5.50
2018-05-07T05:52:41.894Z,5.50
2018-05-07T05:55:09.724Z,6.43
2018-05-07T05:57:37.304Z,5.62
2018-05-07T06:00:04.966Z,5.00
2018-05-07T06:02:32.659Z,5.87
2018-05-07T06:05:01.119Z,5.28
2018-05-07T06:07:28.757Z,5.45
2018-05-07T06:09:57.377Z,5.60
2018-05-07T06:12:24.954Z,5.62
2018-05-07T06:14:52.709Z,5.30
2018-05-07T06:17:20.911Z,5.00
2018-05-07T06:19:48.688Z,4.95
2018-05-07T06:22:16.360Z,5.65
2018-05-07T06:24:44.293Z,5.90
2018-05-07T06:27:12.698Z,5.10
2018-05-07T06:29:40.234Z,5.07
2018-05-07T06:32:09.122Z,5.22
2018-05-07T06:34:37.531Z,5.40
2018-05-07T06:37:05.229Z,5.05
2018-05-07T06:39:32.859Z,4.80
2018-05-07T06:42:00.366Z,4.28
2018-05-07T06:44:27.989Z,4.82
2018-05-07T06:46:55.628Z,4.80
2018-05-07T06:49:23.845Z,4.55
2018-05-07T06:51:51.592Z,4.20
2018-05-07T06:54:19.173Z,4.57
2018-05-07T06:56:46.726Z,4.93
2018-05-07T06:59:14.280Z,4.68
2018-05-07T07:01:41.823Z,4.18
2018-05-07T07:04:09.573Z,4.68
2018-05-07T07:06:37.149Z,4.60
2018-05-07T07:09:05.754Z,4.70
2018-05-07T07:11:34.190Z,4.72
2018-05-07T07:14:02.695Z,5.00
2018-05-07T07:16:31.337Z,4.43
2018-05-07T07:18:59.572Z,4.03
2018-05-07T07:21:27.179Z,4.00
2018-05-07T07:23:54.904Z,5.10
2018-05-07T07:26:22.486Z,4.95
2018-05-07T07:28:50.337Z,4.68
2018-05-07T07:31:18.262Z,4.40
2018-05-07T07:33:46.658Z,4.37
2018-05-07T07:36:14.564Z,4.07
2018-05-07T07:38:42.309Z,3.80
2018-05-07T07:41:10.266Z,4.15
2018-05-07T07:43:37.902Z,3.70
2018-05-07T07:46:06.539Z,4.05
2018-05-07T07:48:34.377Z,3.22
2018-05-07T07:51:02.061Z,3.55
2018-05-07T07:53:30.537Z,2.87
2018-05-07T07:55:58.112Z,2.83
2018-05-07T07:58:26.472Z,3.15
2018-05-07T08:00:54.223Z,3.20
2018-05-07T08:03:21.766Z,2.97
2018-05-07T08:05:49.503Z,3.33
2018-05-07T08:08:17.065Z,3.47
2018-05-07T08:10:45.037Z,3.10
2018-05-07T08:13:12.655Z,2.85
2018-05-07T08:15:40.260Z,2.97
2018-05-07T08:18:08.579Z,2.83
2018-05-07T08:20:36.103Z,3.00
2018-05-07T08:23:04.548Z,2.90
2018-05-07T08:25:32.304Z,3.50
2018-05-07T08:27:59.840Z,2.72
2018-05-07T08:30:27.598Z,3.25
2018-05-07T08:32:56.249Z,2.65
2018-05-07T08:35:24.013Z,2.87
2018-05-07T08:37:51.845Z,2.85
2018-05-07T08:40:19.435Z,2.97
2018-05-07T08:42:47.517Z,2.95
2018-05-07T08:45:16.419Z,2.87
2018-05-07T08:47:44.099Z,3.20
2018-05-07T08:50:13.131Z,3.12
2018-05-07T08:52:40.873Z,3.12
2018-05-07T08:55:09.274Z,3.40
2018-05-07T08:57:38.550Z,3.30
2018-05-07T09:00:06.201Z,2.43
2018-05-07T09:02:34.594Z,3.57
2018-05-07T09:05:02.465Z,3.20
2018-05-07T09:07:30.217Z,3.20
2018-05-07T09:09:58.017Z,2.87
2018-05-07T09:12:25.597Z,2.80
2018-05-07T09:14:53.700Z,2.50
2018-05-07T09:17:21.301Z,2.87
2018-05-07T09:19:49.256Z,3.77
2018-05-07T09:22:17.017Z,3.10
2018-05-07T09:24:45.822Z,3.00
2018-05-07T09:27:13.277Z,3.20
2018-05-07T09:29:40.787Z,2.97
2018-05-07T09:32:09.289Z,4.03
2018-05-07T09:34:36.986Z,3.13
2018-05-07T09:37:04.582Z,3.13
2018-05-07T09:39:33.013Z,3.13
2018-05-07T09:42:00.571Z,3.23
2018-05-07T09:44:28.275Z,2.90
2018-05-07T09:46:55.837Z,3.17
2018-05-07T09:49:23.779Z,2.90
2018-05-07T09:51:51.687Z,3.50
2018-05-07T09:54:19.199Z,2.97
2018-05-07T09:56:54.523Z,2.73
2018-05-07T09:59:22.037Z,2.90
2018-05-07T10:01:49.631Z,2.90
2018-05-07T10:04:18.470Z,2.63
2018-05-07T10:06:46.034Z,2.97
2018-05-07T10:09:14.176Z,2.87
2018-05-07T10:11:43.470Z,3.07
2018-05-07T10:14:11.777Z,3.00
2018-05-07T10:16:40.185Z,2.90
2018-05-07T10:19:07.979Z,2.93
2018-05-07T10:24:17.672Z,3.07
2018-05-07T10:26:45.318Z,2.80
2018-05-07T10:29:14.154Z,2.60
2018-05-07T10:31:41.908Z,2.77
2018-05-07T10:34:09.436Z,2.87
2018-05-07T10:36:37.056Z,2.50
2018-05-07T10:39:04.648Z,2.50
2018-05-07T10:41:32.967Z,2.30
2018-05-07T10:44:00.628Z,2.60
2018-05-07T10:46:29.046Z,2.87
2018-05-07T10:48:56.704Z,2.30
2018-05-07T10:51:24.648Z,2.60
2018-05-07T10:53:52.291Z,2.40
2018-05-07T10:56:20.333Z,3.13
2018-05-07T10:58:48.026Z,2.50
2018-05-07T11:01:15.557Z,2.80
2018-05-07T11:03:44.557Z,2.30
2018-05-07T11:06:12.353Z,2.70
2018-05-07T11:08:39.876Z,3.03
2018-05-07T11:11:07.431Z,3.30
2018-05-07T11:13:36.958Z,2.93
2018-05-07T11:16:04.978Z,2.80
2018-05-07T11:18:32.784Z,3.23
2018-05-07T11:21:00.470Z,3.23
2018-05-07T11:23:28.018Z,3.57
2018-05-07T11:25:55.627Z,3.87
2018-05-07T11:28:23.155Z,3.40
2018-05-07T11:30:51.922Z,3.10
2018-05-07T11:33:19.479Z,3.17
2018-05-07T11:35:47.756Z,3.10
2018-05-07T11:38:16.055Z,3.20
2018-05-07T11:40:43.622Z,2.93
2018-05-07T11:43:11.187Z,3.50
2018-05-07T11:45:38.735Z,3.53
2018-05-07T11:48:07.260Z,3.07
2018-05-07T11:50:35.710Z,3.50
2018-05-07T11:53:04.027Z,3.20
2018-05-07T11:55:33.687Z,3.40
2018-05-07T11:58:01.221Z,4.07
2018-05-07T12:00:29.413Z,2.97
2018-05-07T12:02:57.092Z,3.47
2018-05-07T12:05:24.619Z,3.03
2018-05-07T12:07:52.871Z,3.17
2018-05-07T12:10:20.496Z,3.33
2018-05-07T12:12:48.027Z,2.87
2018-05-07T12:15:15.700Z,3.50
2018-05-07T12:17:43.382Z,3.30
2018-05-07T12:20:11.163Z,3.40
2018-05-07T12:22:40.692Z,4.03
2018-05-07T12:25:08.618Z,3.60
2018-05-07T12:27:36.795Z,4.37
2018-05-07T12:30:04.387Z,3.50
2018-05-07T12:32:32.207Z,11.03
2018-05-07T12:34:59.803Z,3.50
2018-05-07T12:37:27.528Z,3.27
2018-05-07T12:39:55.157Z,3.10
2018-05-07T12:42:23.489Z,3.17
2018-05-07T12:44:51.329Z,3.90
2018-05-07T12:47:18.865Z,4.17
2018-05-07T12:49:46.458Z,4.73
2018-05-07T12:52:14.008Z,3.33
2018-05-07T12:54:41.710Z,3.23
2018-05-07T12:57:09.350Z,2.70
2018-05-07T12:59:36.909Z,2.63
2018-05-07T13:02:05.317Z,2.83
2018-05-07T13:04:33.065Z,3.03
2018-05-07T13:07:00.692Z,3.53
2018-05-07T13:09:28.299Z,2.70
2018-05-07T13:11:55.862Z,3.00
2018-05-07T13:14:23.538Z,2.97
2018-05-07T13:16:51.072Z,3.10
2018-05-07T13:19:18.593Z,2.73
2018-05-07T13:21:47.040Z,3.37
2018-05-07T13:24:14.825Z,3.13
2018-05-07T13:26:42.628Z,3.07
2018-05-07T13:29:10.294Z,3.20
2018-05-07T13:31:38.770Z,3.03
2018-05-07T13:34:06.491Z,3.63
2018-05-07T13:36:34.099Z,3.57
2018-05-07T13:39:01.847Z,3.30
2018-05-07T13:41:30.112Z,3.10
2018-05-07T13:43:58.425Z,3.20
2018-05-07T13:46:26.097Z,3.33
2018-05-07T13:48:55.005Z,3.30
2018-05-07T13:51:22.853Z,2.77
2018-05-07T13:53:50.589Z,3.00
2018-05-07T13:56:18.099Z,2.90
2018-05-07T13:58:45.678Z,2.70
2018-05-07T14:01:13.233Z,2.60
2018-05-07T14:03:41.659Z,2.73
2018-05-07T14:06:09.322Z,2.73
2018-05-07T14:08:37.425Z,2.50
2018-05-07T14:11:04.919Z,2.50
2018-05-07T14:13:33.171Z,2.50
2018-05-07T14:16:00.870Z,2.83
2018-05-07T14:18:28.551Z,3.07
2018-05-07T14:20:56.402Z,3.60
2018-05-07T14:23:23.922Z,2.60
2018-05-07T14:25:51.449Z,3.03
2018-05-07T14:28:19.175Z,2.90
2018-05-07T14:30:49.555Z,3.23
2018-05-07T14:33:17.397Z,2.90
2018-05-07T14:35:44.970Z,2.80
2018-05-07T14:38:12.518Z,3.30
2018-05-07T14:40:40.504Z,3.50
2018-05-07T14:43:08.247Z,2.80
2018-05-07T14:45:36.026Z,3.17
2018-05-07T14:48:03.653Z,2.80
2018-05-07T14:50:31.207Z,2.90
2018-05-07T14:52:59.107Z,3.03
2018-05-07T14:55:26.657Z,2.50
2018-05-07T14:57:54.283Z,2.40
2018-05-07T15:00:21.934Z,2.80
2018-05-07T15:02:50.104Z,2.80
2018-05-07T15:05:18.491Z,3.10
2018-05-07T15:07:46.352Z,2.60
2018-05-07T15:10:14.179Z,2.70
2018-05-07T15:12:41.779Z,3.43
2018-05-07T15:15:09.606Z,3.40
2018-05-07T15:17:37.386Z,2.93
2018-05-07T15:20:04.953Z,2.80
2018-05-07T15:22:32.827Z,2.47
2018-05-07T15:25:00.448Z,2.50
2018-05-07T15:27:27.968Z,2.37
2018-05-07T15:29:56.290Z,2.97
2018-05-07T15:32:23.892Z,2.90
2018-05-07T15:34:51.412Z,3.50
2018-05-07T15:37:20.084Z,2.60
2018-05-07T15:39:48.572Z,2.80
2018-05-07T15:42:16.517Z,3.07
2018-05-07T15:44:47.306Z,3.00
2018-05-07T15:47:14.952Z,2.87
2018-05-07T15:49:43.927Z,2.70
2018-05-07T15:52:12.240Z,2.70
2018-05-07T15:54:41.644Z,2.70
2018-05-07T15:57:09.241Z,2.50
2018-05-07T15:59:37.620Z,2.70
2018-05-07T16:02:05.534Z,2.80
2018-05-07T16:04:33.913Z,2.30
2018-05-07T16:07:01.789Z,2.57
2018-05-07T16:09:31.078Z,2.53
2018-05-07T16:11:59.061Z,2.60
2018-05-07T16:14:27.243Z,2.40
2018-05-07T16:16:54.816Z,2.03
2018-05-07T16:19:22.403Z,2.30
2018-05-07T16:21:50.809Z,2.60
2018-05-07T16:24:19.101Z,2.50
2018-05-07T16:26:46.669Z,2.87
2018-05-07T16:29:15.244Z,2.50
2018-05-07T16:31:43.003Z,2.20
2018-05-07T16:34:10.576Z,2.30
2018-05-07T16:36:38.115Z,2.67
2018-05-07T16:39:05.784Z,3.07
2018-05-07T16:41:33.411Z,2.90
2018-05-07T16:44:01.113Z,2.33
2018-05-07T16:46:29.351Z,2.60
2018-05-07T16:48:56.986Z,2.47
2018-05-07T16:51:24.523Z,2.57
2018-05-07T16:53:52.133Z,2.67
2018-05-07T16:56:19.728Z,2.70
2018-05-07T16:58:47.311Z,2.27
2018-05-07T17:01:15.090Z,2.70
2018-05-07T17:03:43.832Z,2.93
2018-05-07T17:06:11.380Z,3.10
2018-05-07T17:08:39.556Z,2.50
2018-05-07T17:11:07.939Z,2.40
2018-05-07T17:13:35.478Z,2.90
2018-05-07T17:16:03.255Z,2.47
2018-05-07T17:18:31.000Z,2.23
2018-05-07T17:20:58.730Z,2.73
2018-05-07T17:23:26.399Z,2.80
2018-05-07T17:25:53.918Z,2.47
2018-05-07T17:28:22.730Z,2.33
2018-05-07T17:30:51.532Z,3.30
2018-05-07T17:33:19.089Z,2.60
2018-05-07T17:35:47.409Z,2.50
2018-05-07T17:38:14.968Z,2.80
2018-05-07T17:40:43.304Z,3.20
2018-05-07T17:43:10.963Z,3.13
2018-05-07T17:45:54.068Z,2.33
2018-05-07T17:48:33.806Z,3.17
2018-05-07T17:51:01.841Z,2.60
2018-05-07T17:53:29.860Z,2.53
2018-05-07T17:55:57.485Z,2.97
2018-05-07T17:58:25.934Z,2.67
2018-05-07T18:00:54.837Z,3.30
2018-05-07T18:03:22.764Z,2.83
2018-05-07T18:05:51.271Z,3.70
2018-05-07T18:08:18.969Z,3.10
2018-05-07T18:10:46.694Z,3.10
2018-05-07T18:13:14.249Z,3.30
2018-05-07T18:15:41.876Z,2.87
2018-05-07T18:18:09.628Z,4.85
2018-05-07T18:20:37.924Z,3.33
2018-05-07T18:23:05.517Z,4.50
2018-05-07T18:25:33.771Z,3.80
2018-05-07T18:28:01.340Z,3.53
2018-05-07T18:30:29.928Z,3.70
2018-05-07T18:32:58.456Z,3.40
2018-05-07T18:35:26.381Z,3.17
2018-05-07T18:37:54.842Z,3.80
2018-05-07T18:40:23.137Z,3.00
2018-05-07T18:42:51.977Z,3.33
2018-05-07T18:45:19.722Z,2.87
2018-05-07T18:47:47.554Z,3.00
2018-05-07T18:50:15.431Z,3.20
2018-05-07T18:52:42.977Z,3.33
2018-05-07T18:55:10.854Z,3.83
2018-05-07T18:57:39.305Z,3.87
2018-05-07T19:00:07.108Z,4.47
2018-05-07T19:02:34.850Z,4.00
2018-05-07T19:05:02.436Z,3.70
2018-05-07T19:07:30.745Z,4.20
2018-05-07T19:09:58.888Z,4.03
2018-05-07T19:12:26.478Z,4.30
2018-05-07T19:14:54.226Z,4.27
2018-05-07T19:17:21.815Z,3.87
2018-05-07T19:19:49.594Z,3.93
2018-05-07T19:22:19.525Z,4.80
2018-05-07T19:24:47.357Z,3.53
2018-05-07T19:27:15.090Z,3.40
2018-05-07T19:29:43.421Z,3.03
2018-05-07T19:32:11.143Z,3.43
2018-05-07T19:34:39.793Z,3.30
2018-05-07T19:37:07.987Z,3.60
2018-05-07T19:39:35.635Z,4.30
2018-05-07T19:42:03.206Z,3.23
2018-05-07T19:44:31.511Z,3.20
2018-05-07T19:46:59.166Z,4.23
2018-05-07T19:49:26.791Z,4.90
2018-05-07T19:51:55.055Z,6.03
2018-05-07T19:54:23.189Z,5.17
2018-05-07T19:56:50.848Z,3.97
2018-05-07T19:59:18.696Z,4.20
2018-05-07T20:01:46.381Z,4.00
2018-05-07T20:04:15.323Z,3.70
2018-05-07T20:06:43.620Z,4.37
2018-05-07T20:09:12.214Z,5.17
2018-05-07T20:11:39.745Z,4.20
2018-05-07T20:14:07.395Z,3.80
2018-05-07T20:16:35.478Z,3.33
2018-05-07T20:19:04.423Z,3.57
2018-05-07T20:21:32.172Z,3.67
2018-05-07T20:24:00.370Z,4.50
2018-05-07T20:26:28.450Z,4.20
2018-05-07T20:28:56.776Z,3.30
2018-05-07T20:31:24.341Z,3.60
2018-05-07T20:33:52.255Z,3.50
2018-05-07T20:36:20.577Z,3.40
2018-05-07T20:38:49.317Z,3.63
2018-05-07T20:41:18.436Z,4.00
2018-05-07T20:43:46.375Z,2.90
2018-05-07T20:46:15.279Z,3.40
2018-05-07T20:48:43.639Z,3.70
2018-05-07T20:51:11.324Z,4.50
2018-05-07T20:53:38.946Z,3.80
2018-05-07T20:56:06.521Z,3.83
2018-05-07T20:58:34.973Z,3.93
2018-05-07T21:01:02.518Z,3.67
2018-05-07T21:03:30.306Z,4.67
2018-05-07T21:05:57.864Z,3.80
2018-05-07T21:08:26.321Z,3.73
2018-05-07T21:10:54.607Z,3.43
2018-05-07T21:13:22.425Z,3.63
2018-05-07T21:15:51.279Z,4.03
2018-05-07T21:18:19.215Z,4.47
2018-05-07T21:20:46.843Z,4.20
2018-05-07T21:23:16.142Z,4.20
2018-05-07T21:25:49.171Z,7.03
2018-05-07T21:28:17.400Z,7.90
2018-05-07T21:30:45.757Z,4.50
2018-05-07T21:33:13.408Z,4.00
2018-05-07T21:35:43.134Z,4.30
2018-05-07T21:38:10.862Z,3.80
2018-05-07T21:40:39.131Z,4.10
2018-05-07T21:43:07.417Z,4.07
2018-05-07T21:45:35.127Z,4.50
2018-05-07T21:48:04.020Z,4.97
2018-05-07T21:50:31.662Z,3.57
2018-05-07T21:52:59.956Z,3.80
2018-05-07T21:55:27.812Z,3.60
2018-05-07T21:57:55.627Z,4.20
2018-05-07T22:00:23.346Z,3.83
2018-05-07T22:02:51.662Z,3.47
2018-05-07T22:05:19.385Z,3.80
2018-05-07T22:07:47.780Z,3.90
2018-05-07T22:10:18.308Z,4.40
2018-05-07T22:12:46.357Z,4.07
2018-05-07T22:15:13.923Z,3.57
2018-05-07T22:17:41.511Z,3.43
2018-05-07T22:20:10.920Z,5.20
2018-05-07T22:22:38.991Z,3.47
2018-05-07T22:25:06.774Z,3.43
2018-05-07T22:27:35.094Z,3.23
2018-05-07T22:30:02.869Z,3.77
2018-05-07T22:32:30.385Z,3.80
2018-05-07T22:34:58.459Z,4.03
2018-05-07T22:37:26.764Z,3.43
2018-05-07T22:39:54.299Z,3.67
2018-05-07T22:42:21.841Z,3.50
2018-05-07T22:44:49.391Z,3.60
2018-05-07T22:47:16.907Z,3.60
2018-05-07T22:49:45.343Z,3.20
2018-05-07T22:52:12.923Z,3.40
2018-05-07T22:54:40.554Z,3.93
2018-05-07T22:57:08.628Z,4.17
2018-05-07T22:59:36.126Z,3.40
2018-05-07T23:02:05.141Z,3.40
2018-05-07T23:04:32.747Z,3.57
2018-05-07T23:07:00.256Z,3.20
2018-05-07T23:09:29.216Z,4.03
2018-05-07T23:11:58.646Z,3.47
2018-05-07T23:14:26.317Z,3.73
2018-05-07T23:16:54.561Z,4.53
2018-05-07T23:19:22.106Z,3.87
2018-05-07T23:21:49.667Z,3.90
2018-05-07T23:24:17.193Z,4.13
2018-05-07T23:26:44.708Z,4.13
2018-05-07T23:29:13.090Z,4.10
2018-05-07T23:31:41.535Z,3.17
2018-05-07T23:34:09.105Z,3.70
2018-05-07T23:36:36.641Z,4.23
2018-05-07T23:39:04.258Z,4.00
2018-05-07T23:41:32.444Z,3.60
2018-05-07T23:44:00.560Z,3.60
2018-05-07T23:46:28.104Z,3.73
2018-05-07T23:48:55.668Z,4.10
2018-05-07T23:51:23.184Z,4.60
2018-05-07T23:53:52.215Z,4.07
2018-05-07T23:56:20.781Z,3.63
2018-05-07T23:58:48.367Z,3.70
